In Rescue
 
Open Full Screen Window  High Contrast Mode
March 29, 2020 7:45 PM EDT
Weather Information
Wind Direction
  ---
Wind Speed
  00 kt (0 mph)
Wind Gust
  00 kt (0 mph)
Altimeter
29.54 in
Visibility
10 SM
Temperature
06° C
43° F
Dewpoint
05° C
41° F
Humidity
93%
Sky Condition
Overcast @ 7,500 ft
Broken @ 6,500 ft
Scattered @ 1,900 ft
VFR

METAR KSLH 292345Z AUTO 00000KT 10SM SCT019 BKN065 OVC075 06/05 A2954 RMK AO2 T00600046

FAA Disclaimer: The data displayed is for advisory purposes only and is not to be used for flight planning or operations.